Time;durP1;ratioP1;P1;durP2;ratioP2;P2;SDS_P1;SDS_P2;PMS_P1;PMS_P2;Temp;Humidity;BMP_temperature;BMP_pressure;BME280_temperature;BME280_humidity;BME280_pressure;Samples;Min_cycle;Max_cycle;Signal;HPM_P1;HPM_P2
2021/04/07 00:00:31;;;;;;;1.87;1.60;;;1.20;99.90;;;-0.62;100.00;99431.50;5019072;28;59347;-61
2021/04/07 00:02:58;;;;;;;3.67;1.80;;;1.30;99.90;;;-0.58;100.00;99432.13;5003093;28;51498;-59
2021/04/07 00:05:29;;;;;;;3.87;1.80;;;1.30;99.90;;;-0.55;100.00;99427.50;5000527;28;62255;-58
2021/04/07 00:07:56;;;;;;;3.53;1.90;;;1.30;99.90;;;-0.53;100.00;99433.47;5022634;28;52878;-60
2021/04/07 00:10:30;;;;;;;6.47;1.70;;;1.40;99.90;;;-0.56;100.00;99441.56;5023977;28;58057;-60
2021/04/07 00:12:57;;;;;;;2.43;1.70;;;1.40;99.90;;;-0.56;100.00;99443.38;5024992;28;45662;-61
2021/04/07 00:15:26;;;;;;;3.60;1.60;;;1.40;99.90;;;-0.55;100.00;99438.00;5033529;28;53216;-60
2021/04/07 00:17:52;;;;;;;2.37;1.77;;;1.40;99.90;;;-0.56;100.00;99443.38;5046365;28;45745;-59
2021/04/07 00:20:23;;;;;;;3.57;1.73;;;1.50;99.90;;;-0.56;100.00;99440.75;5051712;27;41353;-58
2021/04/07 00:22:51;;;;;;;1.70;1.43;;;1.50;99.90;;;-0.58;100.00;99438.22;5050606;28;54982;-59
2021/04/07 00:25:20;;;;;;;3.63;1.90;;;1.50;99.90;;;-0.57;100.00;99444.31;5043648;28;56936;-58
2021/04/07 00:27:53;;;;;;;3.70;1.50;;;1.50;99.90;;;-0.57;100.00;99439.91;5024861;28;56164;-58
2021/04/07 00:30:22;;;;;;;2.63;1.53;;;1.50;99.90;;;-0.58;100.00;99440.84;5026544;28;54162;-58
2021/04/07 00:32:49;;;;;;;3.50;1.80;;;1.50;99.90;;;-0.56;100.00;99433.69;5040301;28;53733;-59
2021/04/07 00:35:16;;;;;;;2.80;1.80;;;1.50;99.90;;;-0.58;100.00;99438.22;5040720;28;61026;-59
2021/04/07 00:37:42;;;;;;;3.47;1.77;;;1.50;99.90;;;-0.56;100.00;99446.00;5040381;28;52357;-59
2021/04/07 00:40:12;;;;;;;2.87;1.70;;;1.50;99.90;;;-0.56;100.00;99446.00;5038863;28;70401;-59
2021/04/07 00:42:40;;;;;;;4.90;1.70;;;1.50;99.90;;;-0.54;100.00;99450.19;5042644;28;55778;-58
2021/04/07 00:45:10;;;;;;;3.03;1.67;;;1.50;99.90;;;-0.55;100.00;99445.88;5029760;28;53598;-59
2021/04/07 00:47:37;;;;;;;2.80;1.37;;;1.50;99.90;;;-0.57;100.00;99449.56;5045169;28;49680;-58
2021/04/07 00:50:07;;;;;;;4.10;1.97;;;1.50;99.90;;;-0.56;100.00;99446.84;5042634;28;58158;-59
2021/04/07 00:52:34;;;;;;;3.73;1.93;;;1.50;99.90;;;-0.57;100.00;99439.91;5051079;28;51358;-59
2021/04/07 00:55:02;;;;;;;5.27;1.80;;;1.50;99.90;;;-0.54;100.00;99449.34;5031379;28;50597;-59
2021/04/07 00:57:29;;;;;;;4.60;1.70;;;1.50;99.90;;;-0.54;100.00;99450.19;5040490;28;46056;-61
2021/04/07 00:59:56;;;;;;;4.13;2.00;;;1.50;99.90;;;-0.53;100.00;99451.88;5048238;28;45865;-60
2021/04/07 01:02:23;;;;;;;5.77;1.87;;;1.50;99.90;;;-0.50;100.00;99456.94;5047415;28;49606;-59
2021/04/07 01:04:51;;;;;;;3.17;1.90;;;1.50;99.90;;;-0.50;100.00;99454.31;5045571;28;51777;-60
2021/04/07 01:07:19;;;;;;;3.80;2.20;;;1.50;99.90;;;-0.49;100.00;99460.38;5039596;28;65290;-59
2021/04/07 01:09:45;;;;;;;5.87;2.20;;;1.50;99.90;;;-0.49;100.00;99460.38;5038345;28;66075;-60
2021/04/07 01:12:12;;;;;;;2.80;2.00;;;1.50;99.90;;;-0.50;100.00;99459.56;5042068;28;64479;-61
2021/04/07 01:14:40;;;;;;;3.30;1.77;;;1.50;99.90;;;-0.50;100.00;99456.94;5022867;28;53703;-60
2021/04/07 01:17:09;;;;;;;3.10;1.70;;;1.50;99.90;;;-0.49;100.00;99461.22;5021863;28;52651;-60
2021/04/07 01:19:36;;;;;;;2.90;2.07;;;1.60;99.90;;;-0.49;100.00;99461.22;5021452;28;58530;-59
2021/04/07 01:22:04;;;;;;;3.67;2.00;;;1.50;99.90;;;-0.48;100.00;99464.66;5017806;28;67798;-59
2021/04/07 01:24:32;;;;;;;3.17;1.97;;;1.60;99.90;;;-0.48;100.00;99464.66;5018027;28;71013;-59
2021/04/07 01:27:00;;;;;;;4.80;1.87;;;1.60;99.90;;;-0.49;100.00;99469.09;5011739;28;74281;-59
2021/04/07 01:29:26;;;;;;;2.90;1.90;;;1.50;99.90;;;-0.52;100.00;99463.22;5014514;28;67834;-60
2021/04/07 01:31:56;;;;;;;4.93;2.07;;;1.50;99.90;;;-0.51;100.00;99464.91;5003332;28;79227;-61
2021/04/07 01:34:24;;;;;;;4.17;2.13;;;1.60;99.90;;;-0.55;100.00;99455.56;5002013;28;79541;-57
2021/04/07 01:36:51;;;;;;;5.50;2.50;;;1.60;99.90;;;-0.57;100.00;99466.16;5015302;28;83202;-61
2021/04/07 01:39:20;;;;;;;4.80;2.43;;;1.60;99.90;;;-0.58;100.00;99469.75;5011844;28;68106;-59
2021/04/07 01:41:48;;;;;;;4.03;2.60;;;1.50;99.90;;;-0.63;100.00;99465.78;5012763;28;67354;-59
2021/04/07 01:44:17;;;;;;;4.00;2.33;;;1.50;99.90;;;-0.64;100.00;99464.94;5017429;28;62262;-60
2021/04/07 01:46:50;;;;;;;4.73;2.20;;;1.50;99.90;;;-0.64;100.00;99472.81;5014353;28;75604;-61
2021/04/07 01:49:17;;;;;;;4.13;2.13;;;1.50;99.90;;;-0.65;100.00;99473.75;5014682;28;74682;-60
2021/04/07 01:51:44;;;;;;;4.73;2.23;;;1.50;99.90;;;-0.62;100.00;99481.44;5010340;28;71192;-59
2021/04/07 01:54:13;;;;;;;4.03;2.57;;;1.50;99.90;;;-0.62;100.00;99484.06;4995949;28;87664;-60
2021/04/07 01:56:48;;;;;;;4.53;1.90;;;1.50;99.90;;;-0.60;100.00;99481.31;5014132;28;77641;-60
2021/04/07 01:59:17;;;;;;;4.10;2.23;;;1.40;99.90;;;-0.60;100.00;99481.31;5034275;28;64892;-60
2021/04/07 02:01:44;;;;;;;4.10;2.67;;;1.50;99.90;;;-0.60;100.00;99482.16;5029841;28;74263;-61
2021/04/07 02:04:11;;;;;;;5.07;2.20;;;1.50;99.90;;;-0.59;100.00;99485.63;5026833;28;89095;-60
2021/04/07 02:06:38;;;;;;;3.77;2.17;;;1.50;99.90;;;-0.61;100.00;99485.72;5023886;28;86030;-58
2021/04/07 02:09:06;;;;;;;3.40;2.47;;;1.50;99.90;;;-0.59;100.00;99483.81;5019865;28;93479;-58
2021/04/07 02:11:33;;;;;;;3.37;2.33;;;1.50;99.90;;;-0.59;100.00;99481.19;5039538;28;53943;-60
2021/04/07 02:14:01;;;;;;;5.60;2.33;;;1.50;99.90;;;-0.59;100.00;99485.63;5022969;28;62963;-61
2021/04/07 02:16:27;;;;;;;5.27;2.40;;;1.50;99.90;;;-0.60;100.00;99491.81;5022501;28;59841;-60
2021/04/07 02:18:57;;;;;;;3.20;2.63;;;1.50;99.90;;;-0.58;100.00;99496.03;5025306;28;49890;-61
2021/04/07 02:21:23;;;;;;;4.17;2.80;;;1.50;99.90;;;-0.59;100.00;99499.59;5025087;28;49853;-61
2021/04/07 02:24:26;;;;;;;5.40;2.63;;;1.50;99.90;;;-0.54;100.00;99508.00;5029230;28;43706;-60
2021/04/07 02:27:39;;;;;;;2.47;2.13;;;1.50;99.90;;;-0.57;100.00;99505.59;5031087;28;46716;-61
2021/04/07 02:31:03;;;;;;;5.47;2.97;;;1.50;99.90;;;-0.58;100.00;99503.91;5026489;28;59741;-60
2021/04/07 02:34:27;;;;;;;5.70;3.20;;;1.50;99.90;;;-0.57;100.00;99508.22;5021992;28;60873;-61
2021/04/07 02:37:38;;;;;;;3.40;2.57;;;1.50;99.90;;;-0.55;100.00;99513.38;5023308;28;63436;-59
2021/04/07 02:40:49;;;;;;;6.53;3.23;;;1.60;99.90;;;-0.56;100.00;99509.91;5005546;28;51977;-60
2021/04/07 02:47:47;;;;;;;3.03;2.70;;;1.60;99.90;;;-0.52;100.00;99510.53;5012954;28;71638;-59
2021/04/07 02:50:58;;;;;;;4.03;3.00;;;1.50;99.90;;;-0.54;100.00;99515.03;5006056;28;68093;-61
2021/04/07 02:54:10;;;;;;;4.97;3.10;;;1.50;99.90;;;-0.54;100.00;99518.53;5009928;28;73366;-58
2021/04/07 02:57:21;;;;;;;6.30;3.10;;;1.60;99.90;;;-0.50;100.00;99516.53;5011490;28;71959;-59
2021/04/07 03:00:34;;;;;;;6.43;3.17;;;1.60;99.90;;;-0.50;100.00;99517.38;5005336;28;84392;-59
2021/04/07 03:03:47;;;;;;;5.93;3.13;;;1.60;99.90;;;-0.51;100.00;99526.19;4994393;28;69745;-59
2021/04/07 03:06:58;;;;;;;3.93;3.10;;;1.60;99.90;;;-0.51;100.00;99525.34;5003570;28;90560;-58
2021/04/07 03:10:09;;;;;;;4.27;3.50;;;1.60;99.90;;;-0.52;100.00;99518.41;5001689;28;87520;-60
2021/04/07 03:13:20;;;;;;;5.90;3.20;;;1.60;99.90;;;-0.51;100.00;99533.25;5001054;28;79560;-61
2021/04/07 03:16:32;;;;;;;6.13;3.43;;;1.50;99.90;;;-0.50;100.00;99529.66;5020415;28;81161;-60
2021/04/07 03:20:08;;;;;;;6.23;3.33;;;1.60;99.90;;;-0.51;100.00;99533.25;5028330;28;81345;-61
2021/04/07 03:23:20;;;;;;;6.23;3.33;;;1.60;99.90;;;-0.55;100.00;99529.97;4930977;28;68810;-60
2021/04/07 03:26:31;;;;;;;5.83;3.47;;;1.60;99.90;;;-0.56;100.00;99530.91;4927684;28;84650;-60
2021/04/07 03:29:58;;;;;;;4.33;3.40;;;1.50;99.90;;;-0.58;100.00;99540.69;5013918;28;65185;-59
2021/04/07 03:33:09;;;;;;;6.17;2.90;;;1.50;99.90;;;-0.58;100.00;99551.19;5005656;28;82469;-60
2021/04/07 03:36:23;;;;;;;5.23;3.63;;;1.50;99.90;;;-0.58;100.00;99545.09;5004376;28;82062;-61
2021/04/07 03:39:34;;;;;;;4.47;3.40;;;1.50;99.90;;;-0.57;100.00;99547.63;5013213;28;57950;-60
2021/04/07 03:42:45;;;;;;;5.00;3.97;;;1.50;99.90;;;-0.59;100.00;99549.50;5011384;28;73253;-59
2021/04/07 03:45:59;;;;;;;7.03;4.33;;;1.50;99.90;;;-0.58;100.00;99552.97;5014246;28;59128;-60
2021/04/07 03:49:11;;;;;;;4.33;3.43;;;1.50;99.90;;;-0.58;100.00;99564.34;5017065;28;60807;-61
2021/04/07 03:52:23;;;;;;;5.63;4.00;;;1.50;99.90;;;-0.56;100.00;99556.34;5008914;28;67508;-61
2021/04/07 03:55:35;;;;;;;4.60;3.80;;;1.50;99.90;;;-0.54;100.00;99563.19;5013860;28;64652;-60
2021/04/07 03:58:52;;;;;;;4.30;3.73;;;1.50;99.90;;;-0.48;100.00;99570.63;5018111;28;56747;-61
2021/04/07 04:02:03;;;;;;;5.13;4.23;;;1.60;99.90;;;-0.50;100.00;99564.66;5016204;28;61062;-60
2021/04/07 04:05:15;;;;;;;4.63;4.00;;;1.60;99.90;;;-0.45;100.00;99578.31;5004444;28;49649;-62
2021/04/07 04:08:27;;;;;;;4.63;4.03;;;1.60;99.90;;;-0.47;100.00;99574.09;5023177;28;53220;-61
2021/04/07 04:11:39;;;;;;;4.80;4.10;;;1.60;99.90;;;-0.39;100.00;99585.78;5024268;28;58863;-60
2021/04/07 04:14:56;;;;;;;6.27;4.23;;;1.60;99.90;;;-0.43;100.00;99593.97;4675587;28;9810417;-60
2021/04/07 04:18:08;;;;;;;4.80;4.17;;;1.60;99.90;;;-0.38;100.00;99597.16;5024542;28;49869;-60
2021/04/07 04:21:19;;;;;;;6.90;4.90;;;1.60;99.90;;;-0.46;100.00;99597.66;5022657;28;55929;-60
2021/04/07 04:24:32;;;;;;;8.50;4.00;;;1.70;99.90;;;-0.53;100.00;99601.66;5027929;28;57135;-60
2021/04/07 04:27:43;;;;;;;4.50;3.90;;;1.70;99.90;;;-0.52;100.00;99602.50;5026381;28;56130;-58
2021/04/07 04:30:55;;;;;;;6.80;4.13;;;1.70;99.90;;;-0.49;100.00;99611.00;5023918;28;51601;-62
2021/04/07 04:34:06;;;;;;;5.13;4.30;;;1.60;99.90;;;-0.52;100.00;99613.84;5024093;28;49932;-59
2021/04/07 04:37:17;;;;;;;7.63;5.17;;;1.60;99.90;;;-0.49;100.00;99610.16;5023598;28;51860;-59
2021/04/07 04:40:31;;;;;;;7.60;4.23;;;1.60;99.90;;;-0.47;100.00;99616.16;5024335;28;48945;-57
2021/04/07 04:43:42;;;;;;;6.97;4.37;;;1.60;99.90;;;-0.51;100.00;99615.53;5021794;28;59554;-60
2021/04/07 04:46:53;;;;;;;7.37;5.00;;;1.60;99.90;;;-0.51;100.00;99625.22;5029095;28;52472;-60
2021/04/07 04:50:04;;;;;;;6.63;4.77;;;1.60;99.90;;;-0.49;100.00;99624.13;5046336;28;47145;-60
2021/04/07 04:53:16;;;;;;;8.87;5.10;;;1.60;99.90;;;-0.45;100.00;99627.41;5045202;28;54179;-60
2021/04/07 04:56:28;;;;;;;6.97;5.10;;;1.60;99.90;;;-0.49;100.00;99631.19;5046623;28;51179;-60
2021/04/07 04:59:39;;;;;;;8.80;5.20;;;1.60;99.90;;;-0.50;100.00;99640.03;5046100;28;50478;-60
2021/04/07 05:02:50;;;;;;;7.43;4.87;;;1.70;99.90;;;-0.50;100.00;99638.25;5045024;28;52520;-60
2021/04/07 05:06:02;;;;;;;9.80;5.47;;;1.60;99.90;;;-0.49;100.00;99644.31;5037776;27;57325;-59
2021/04/07 05:09:50;;;;;;;5.53;4.93;;;1.60;99.90;;;-0.47;100.00;99645.91;5038511;28;55524;-59
2021/04/07 05:13:02;;;;;;;5.73;4.53;;;1.70;99.90;;;-0.51;100.00;99640.97;4971187;28;57552;-60
2021/04/07 05:16:14;;;;;;;8.83;5.23;;;1.70;99.90;;;-0.47;100.00;99645.91;5032599;28;65620;-60
2021/04/07 05:19:25;;;;;;;8.50;5.43;;;1.70;99.90;;;-0.44;100.00;99650.97;5024071;28;50476;-60
2021/04/07 05:22:48;;;;;;;6.87;5.50;;;1.70;99.90;;;-0.38;100.00;99654.97;5009641;28;47284;-59
2021/04/07 05:25:59;;;;;;;6.77;5.87;;;1.70;99.90;;;-0.39;100.00;99650.66;5019611;28;59582;-60
2021/04/07 05:29:24;;;;;;;7.13;5.83;;;1.80;99.90;;;-0.41;100.00;99660.44;5024600;28;50515;-61
2021/04/07 05:32:35;;;;;;;7.60;5.40;;;1.80;99.90;;;-0.40;100.00;99667.38;5023743;28;48710;-60
2021/04/07 05:35:46;;;;;;;6.93;5.10;;;1.80;99.90;;;-0.38;100.00;99679.47;5020405;28;51878;-61
2021/04/07 05:38:57;;;;;;;7.23;5.93;;;1.80;99.90;;;-0.34;100.00;99685.34;5019621;28;68000;-61
2021/04/07 05:42:08;;;;;;;11.43;6.87;;;1.80;99.90;;;-0.27;100.00;99685.78;5028889;28;60814;-61
2021/04/07 05:45:21;;;;;;;11.20;7.60;;;1.80;99.90;;;-0.31;100.00;99689.56;5021720;28;69154;-61
2021/04/07 05:48:33;;;;;;;10.07;7.37;;;1.90;99.90;;;-0.30;100.00;99691.25;5023977;28;72753;-61
2021/04/07 05:51:44;;;;;;;10.07;6.53;;;1.90;99.90;;;-0.23;100.00;99688.06;5021609;28;67534;-60
2021/04/07 05:54:55;;;;;;;9.53;6.23;;;1.90;99.90;;;-0.20;100.00;99695.75;5020230;28;77082;-62
2021/04/07 05:58:22;;;;;;;8.83;6.50;;;2.00;99.90;;;-0.06;100.00;99694.81;4992252;28;83437;-61
2021/04/07 06:01:34;;;;;;;9.30;6.70;;;2.00;99.90;;;-0.15;100.00;99704.19;5025701;28;81115;-60
2021/04/07 06:04:45;;;;;;;9.00;6.53;;;2.00;99.90;;;-0.16;100.00;99710.41;5028586;28;63381;-58
2021/04/07 06:07:56;;;;;;;10.43;7.17;;;2.00;99.90;;;-0.22;100.00;99718.69;5024094;28;70890;-59
2021/04/07 06:11:08;;;;;;;10.17;6.77;;;2.00;99.90;;;-0.20;100.00;99718.59;5025728;28;56157;-60
2021/04/07 06:14:20;;;;;;;9.73;7.10;;;2.10;99.90;;;-0.18;100.00;99719.34;5030675;28;71198;-61
2021/04/07 06:17:32;;;;;;;10.67;6.67;;;2.10;99.90;;;-0.18;100.00;99724.59;5008301;28;63864;-61
2021/04/07 06:20:45;;;;;;;9.87;6.60;;;2.00;99.90;;;-0.25;100.00;99729.44;5024161;28;64398;-61
2021/04/07 06:23:56;;;;;;;7.10;5.87;;;2.10;99.90;;;-0.29;100.00;99737.63;5032394;28;68038;-60
2021/04/07 06:27:07;;;;;;;9.60;7.00;;;2.00;99.90;;;-0.25;100.00;99739.09;5015777;28;90062;-61
2021/04/07 06:30:19;;;;;;;10.17;6.53;;;2.00;99.90;;;-0.24;100.00;99749.50;5007010;28;73319;-61
2021/04/07 06:33:33;;;;;;;13.17;6.00;;;2.00;99.90;;;-0.24;100.00;99741.59;5028995;28;66389;-61
2021/04/07 06:36:44;;;;;;;5.63;4.50;;;2.00;99.90;;;-0.31;100.00;99748.22;5035264;28;64115;-61
2021/04/07 06:39:55;;;;;;;6.00;4.67;;;2.00;99.90;;;-0.29;100.00;99750.75;5024567;28;75422;-61
2021/04/07 06:43:07;;;;;;;9.07;5.30;;;2.00;99.90;;;-0.30;100.00;99751.72;5014921;28;68234;-59
2021/04/07 06:46:18;;;;;;;7.80;5.60;;;2.00;99.90;;;-0.29;100.00;99756.03;5017642;28;61534;-60
2021/04/07 06:49:31;;;;;;;10.27;5.80;;;2.00;99.90;;;-0.21;100.00;99758.97;5012592;28;87136;-60
2021/04/07 06:52:44;;;;;;;8.73;5.43;;;2.00;99.90;;;-0.25;100.00;99762.78;5028652;28;75933;-61
2021/04/07 06:56:04;;;;;;;9.00;5.70;;;2.00;99.90;;;-0.24;100.00;99767.91;5010730;28;67410;-60
2021/04/07 06:59:16;;;;;;;9.03;5.70;;;2.00;99.90;;;-0.19;100.00;99768.44;5028613;28;64799;-59
2021/04/07 07:02:27;;;;;;;9.70;5.17;;;2.00;99.90;;;-0.09;100.00;99774.75;5023689;28;63350;-58
2021/04/07 07:05:40;;;;;;;7.70;5.67;;;2.00;99.90;;;0.02;100.00;99770.56;5036058;28;52729;-59
2021/04/07 07:08:51;;;;;;;6.97;5.20;;;2.10;99.90;;;0.11;100.00;99770.81;5029109;28;48565;-58
2021/04/07 07:12:04;;;;;;;9.37;5.27;;;2.10;99.90;;;0.07;100.00;99777.22;5036347;28;58032;-59
2021/04/07 07:18:51;;;;;;;8.10;5.33;;;2.30;99.90;;;0.03;100.00;99778.34;5034592;28;47287;-59
2021/04/07 07:22:07;;;;;;;6.83;5.47;;;2.30;99.90;;;0.48;100.00;99768.25;5044265;28;46720;-59
2021/04/07 07:25:19;;;;;;;12.40;6.37;;;2.40;99.90;;;0.63;100.00;99780.31;5035254;28;46083;-60
2021/04/07 07:28:49;;;;;;;9.50;6.00;;;2.60;99.90;;;0.64;100.00;99782.84;5037710;28;51249;-60
2021/04/07 07:32:05;;;;;;;8.37;5.10;;;2.80;99.90;;;0.57;100.00;99786.03;5029264;28;59157;-59
2021/04/07 07:35:23;;;;;;;9.60;5.20;;;3.00;99.90;;;0.53;100.00;99789.81;5033200;28;61471;-59
2021/04/07 07:38:38;;;;;;;11.70;5.57;;;3.00;99.90;;;0.47;100.00;99795.53;5030407;28;63523;-60
2021/04/07 07:41:52;;;;;;;8.23;5.93;;;3.00;99.90;;;0.43;100.00;99801.94;5021526;28;66481;-60
2021/04/07 07:48:58;;;;;;;11.13;6.50;;;2.90;99.90;;;0.49;100.00;99802.38;5017258;28;61205;-59
2021/04/07 07:52:11;;;;;;;12.10;5.20;;;2.90;99.90;;;0.60;100.00;99814.78;5029884;28;64827;-61
2021/04/07 07:55:30;;;;;;;10.47;5.13;;;2.90;99.90;;;0.59;100.00;99811.31;5041716;28;59491;-60
2021/04/07 07:58:42;;;;;;;11.57;5.37;;;2.90;99.90;;;0.87;100.00;99828.63;5031296;28;63559;-60
2021/04/07 08:01:58;;;;;;;8.83;4.60;;;3.00;99.90;;;0.84;100.00;99828.88;5038595;28;47362;-59
2021/04/07 08:08:47;;;;;;;9.10;4.00;;;3.10;99.90;;;1.10;100.00;99839.38;5024473;28;57397;-60
2021/04/07 08:12:05;;;;;;;14.27;6.47;;;3.20;99.90;;;1.29;100.00;99837.94;5030368;28;59536;-61
2021/04/07 08:15:20;;;;;;;6.80;3.10;;;3.30;99.90;;;1.34;100.00;99832.34;5031796;28;49999;-58
2021/04/07 08:18:34;;;;;;;8.27;2.60;;;3.50;99.90;;;1.21;100.00;99836.81;5017372;28;51988;-59
2021/04/07 08:21:46;;;;;;;6.33;3.03;;;3.70;99.90;;;1.48;100.00;99840.09;5037857;28;50194;-61
2021/04/07 08:24:59;;;;;;;9.97;3.40;;;3.70;99.90;;;1.56;100.00;99835.09;5032169;28;53927;-58
2021/04/07 08:28:35;;;;;;;8.97;3.20;;;3.90;99.90;;;1.68;100.00;99843.91;5038433;28;55550;-60
2021/04/07 08:31:56;;;;;;;7.70;3.20;;;4.00;99.90;;;1.68;100.00;99841.25;4996487;28;59685;-60
2021/04/07 08:35:07;;;;;;;6.57;2.90;;;4.20;99.90;;;2.05;100.00;99836.72;5036837;28;45707;-60
2021/04/07 08:38:24;;;;;;;7.97;3.47;;;4.30;99.90;;;2.46;100.00;99837.09;5033881;28;47870;-61
2021/04/07 08:41:51;;;;;;;8.60;3.13;;;4.60;99.90;;;2.45;100.00;99847.75;5034855;27;48489;-59
2021/04/07 08:45:03;;;;;;;9.83;3.47;;;4.90;98.00;;;2.63;100.00;99837.56;5042719;28;45208;-61
2021/04/07 08:51:50;;;;;;;10.67;4.27;;;5.50;95.00;;;3.00;100.00;99846.09;5038110;28;48492;-61
2021/04/07 08:55:22;;;;;;;10.00;3.97;;;5.80;94.50;;;2.73;100.00;99854.38;5046030;28;44154;-61
2021/04/07 08:58:39;;;;;;;8.90;3.40;;;6.00;91.70;;;2.64;100.00;99853.28;5041026;28;50240;-61
2021/04/07 09:01:53;;;;;;;7.63;2.90;;;6.10;91.60;;;2.07;100.00;99861.22;5038872;28;50111;-60
2021/04/07 09:05:11;;;;;;;13.00;3.20;;;5.90;88.90;;;1.85;100.00;99856.69;5037920;28;52362;-60
2021/04/07 09:08:23;;;;;;;6.40;2.47;;;5.60;90.00;;;2.24;100.00;99859.94;5032940;28;56610;-61
2021/04/07 09:15:18;;;;;;;4.93;2.60;;;5.40;91.10;;;2.88;100.00;99875.19;5021100;28;46054;-61
2021/04/07 09:18:40;;;;;;;5.70;2.80;;;5.50;90.30;;;3.64;100.00;99865.59;5031852;28;52906;-60
2021/04/07 09:22:01;;;;;;;5.17;2.30;;;5.80;91.10;;;3.29;100.00;99852.56;5039560;28;53276;-60
2021/04/07 09:25:21;;;;;;;5.83;2.40;;;6.20;88.00;;;2.84;100.00;99859.69;5040815;28;47735;-60
2021/04/07 09:28:39;;;;;;;8.77;2.73;;;6.40;80.70;;;2.73;100.00;99865.78;5040709;28;41440;-61
2021/04/07 09:31:54;;;;;;;5.73;2.63;;;6.30;78.60;;;2.71;100.00;99865.09;5040469;28;42088;-61
2021/04/07 09:35:06;;;;;;;6.63;2.63;;;6.20;80.70;;;2.78;100.00;99865.44;5046406;28;57477;-60
2021/04/07 09:38:18;;;;;;;4.83;2.33;;;6.10;81.00;;;2.74;100.00;99871.91;5016096;28;50665;-61
2021/04/07 09:41:45;;;;;;;6.10;2.20;;;6.00;79.60;;;2.80;100.00;99874.09;5036525;28;45177;-60
2021/04/07 09:44:58;;;;;;;6.57;2.27;;;6.00;79.20;;;2.78;100.00;99868.09;5043875;28;40699;-61
2021/04/07 09:48:11;;;;;;;5.60;2.73;;;5.90;79.50;;;2.86;100.00;99876.25;5038079;28;43291;-61
2021/04/07 09:51:38;;;;;;;4.57;2.30;;;5.80;80.70;;;2.98;100.00;99877.09;5036042;28;48042;-60
2021/04/07 09:54:52;;;;;;;5.60;2.53;;;5.80;80.80;;;3.25;100.00;99883.69;5039933;28;41195;-59
2021/04/07 09:58:13;;;;;;;6.33;2.40;;;5.80;81.10;;;3.46;100.00;99880.31;5049098;28;41397;-60
2021/04/07 10:01:25;;;;;;;5.77;2.50;;;6.00;82.10;;;3.68;100.00;99879.44;5038187;28;48135;-60
2021/04/07 10:04:43;;;;;;;7.20;2.50;;;6.20;81.10;;;3.21;100.00;99886.72;5039486;28;52913;-59
2021/04/07 10:07:56;;;;;;;5.07;1.90;;;6.30;76.20;;;3.29;100.00;99896.69;5044428;28;44477;-61
2021/04/07 10:11:14;;;;;;;4.60;2.00;;;6.30;75.10;;;2.96;100.00;99895.75;5036938;28;47056;-61
2021/04/07 10:14:50;;;;;;;6.83;2.30;;;6.20;74.80;;;2.84;100.00;99902.78;5034289;28;49434;-60
2021/04/07 10:18:01;;;;;;;7.87;2.10;;;6.10;75.00;;;2.85;100.00;99893.91;5037292;28;49475;-60
2021/04/07 10:21:19;;;;;;;6.07;2.57;;;6.00;74.10;;;2.81;100.00;99894.28;5039635;28;52137;-59
2021/04/07 10:24:46;;;;;;;5.43;1.70;;;5.80;74.00;;;2.86;100.00;99903.50;5037523;28;46987;-59
2021/04/07 10:27:58;;;;;;;4.93;1.97;;;5.80;74.20;;;2.93;100.00;99903.91;5028931;28;48400;-59
2021/04/07 10:31:16;;;;;;;7.07;1.80;;;5.70;73.10;;;2.98;100.00;99898.22;5026599;28;61109;-60
2021/04/07 10:34:40;;;;;;;5.67;1.83;;;5.70;69.30;;;2.94;100.00;99904.75;5033668;28;52612;-60
2021/04/07 10:37:57;;;;;;;5.13;1.90;;;5.70;70.00;;;2.91;100.00;99910.25;5030167;28;53311;-60
2021/04/07 10:41:16;;;;;;;6.03;1.90;;;5.70;69.50;;;3.04;100.00;99921.56;5029838;28;54752;-61
2021/04/07 10:47:53;;;;;;;7.17;1.97;;;5.70;71.00;;;3.07;100.00;99919.53;5031315;28;49533;-60
2021/04/07 10:51:05;;;;;;;5.40;2.00;;;5.60;69.90;;;3.17;100.00;99915.19;5024795;28;55544;-58
2021/04/07 10:54:22;;;;;;;5.70;1.63;;;5.70;69.80;;;3.31;100.00;99914.13;5032343;28;51826;-60
2021/04/07 10:57:53;;;;;;;4.43;2.00;;;5.70;70.40;;;3.23;100.00;99911.22;5008910;28;59238;-61
2021/04/07 11:01:05;;;;;;;6.63;1.77;;;5.90;67.80;;;3.41;100.00;99914.22;5029952;28;51475;-59
2021/04/07 11:04:22;;;;;;;8.63;1.80;;;6.00;68.60;;;3.76;100.00;99917.53;5023100;27;51190;-60
2021/04/07 11:07:34;;;;;;;4.77;1.70;;;6.10;69.30;;;4.01;100.00;99920.84;5036264;28;54728;-57
2021/04/07 11:10:47;;;;;;;6.47;2.10;;;6.50;68.00;;;3.75;100.00;99913.19;5028365;28;55087;-59
2021/04/07 11:14:01;;;;;;;4.20;2.20;;;6.70;63.50;;;4.26;100.00;99916.03;5028746;28;49041;-61
2021/04/07 11:17:23;;;;;;;3.90;1.70;;;7.00;63.50;;;4.36;100.00;99912.63;4988975;28;55558;-60
2021/04/07 11:20:34;;;;;;;5.60;1.83;;;7.30;61.20;;;4.40;100.00;99908.75;4997960;28;46819;-59
2021/04/07 11:23:46;;;;;;;4.73;1.63;;;7.50;59.60;;;4.50;100.00;99912.31;4993231;28;51005;-61
2021/04/07 11:27:10;;;;;;;4.37;1.40;;;8.00;57.70;;;4.70;100.00;99904.34;5004783;28;43342;-60
2021/04/07 11:34:09;;;;;;;6.73;1.47;;;8.50;53.70;;;4.48;100.00;99909.78;4939490;28;47917;-59
2021/04/07 11:37:29;;;;;;;5.10;1.80;;;8.50;54.00;;;4.29;100.00;99907.84;4983547;28;52877;-60
2021/04/07 11:47:30;;;;;;;2.87;1.27;;;8.20;53.20;;;4.07;100.00;99923.84;5007819;28;45953;-61
2021/04/07 11:50:42;;;;;;;4.73;1.80;;;8.10;52.90;;;4.62;100.00;99917.41;4998863;28;51686;-60
2021/04/07 11:53:53;;;;;;;2.30;1.50;;;8.10;53.00;;;4.53;100.00;99906.75;5020273;28;42575;-61
2021/04/07 11:57:04;;;;;;;5.90;1.80;;;8.30;53.10;;;4.53;100.00;99909.41;5018096;28;47563;-60
2021/04/07 12:00:16;;;;;;;5.80;1.90;;;8.40;52.80;;;4.99;100.00;99916.94;5012425;28;42526;-60
2021/04/07 12:03:29;;;;;;;4.13;1.73;;;8.60;53.00;;;5.24;100.00;99900.59;5023990;28;42707;-60
2021/04/07 12:06:40;;;;;;;2.30;1.70;;;9.00;53.00;;;5.11;100.00;99899.13;5021145;28;44550;-60
2021/04/07 12:09:55;;;;;;;4.33;2.00;;;9.30;51.60;;;5.10;100.00;99910.72;5013777;28;48064;-59
2021/04/07 12:13:06;;;;;;;6.97;2.33;;;9.40;50.60;;;5.31;100.00;99904.41;5025104;28;40924;-60
2021/04/07 12:16:17;;;;;;;4.30;1.73;;;9.40;50.60;;;5.15;100.00;99895.25;5035100;28;56943;-60
2021/04/07 12:19:31;;;;;;;3.00;1.80;;;9.50;50.30;;;4.52;100.00;99913.03;5042620;28;53650;-61
2021/04/07 12:22:43;;;;;;;7.70;2.33;;;9.20;49.00;;;4.48;100.00;99901.84;5044749;28;47291;-61
2021/04/07 12:25:54;;;;;;;4.53;2.13;;;8.80;50.40;;;4.52;100.00;99908.56;5027616;28;51412;-59
2021/04/07 12:29:06;;;;;;;5.03;2.20;;;8.70;50.70;;;4.63;100.00;99897.91;5022286;28;56985;-59
2021/04/07 12:32:17;;;;;;;3.40;2.00;;;8.50;50.80;;;4.63;100.00;99905.00;5037385;28;51340;-61
2021/04/07 12:38:57;;;;;;;4.13;2.13;;;8.20;51.20;;;4.88;100.00;99894.00;5033731;28;51516;-60
2021/04/07 12:42:16;;;;;;;4.87;2.50;;;8.20;50.90;;;4.96;100.00;99883.56;5042684;28;48308;-60
2021/04/07 12:45:27;;;;;;;3.27;2.37;;;8.50;50.40;;;4.65;100.00;99885.38;5034649;28;45746;-62
2021/04/07 12:48:47;;;;;;;5.93;3.10;;;8.40;49.80;;;4.61;100.00;99889.25;5043414;28;52761;-61
2021/04/07 12:51:59;;;;;;;4.83;2.57;;;8.20;50.10;;;4.27;100.00;99901.84;5036941;28;51691;-62
2021/04/07 12:55:10;;;;;;;2.97;2.43;;;7.90;50.90;;;4.53;100.00;99896.16;5039271;28;53421;-61
2021/04/07 12:58:22;;;;;;;4.50;2.80;;;7.70;51.70;;;5.23;100.00;99882.16;5042232;28;45857;-60
2021/04/07 13:01:33;;;;;;;5.00;2.77;;;7.90;52.30;;;5.75;100.00;99881.88;5042450;28;49822;-61
2021/04/07 13:04:44;;;;;;;5.00;2.53;;;8.40;52.30;;;6.20;100.00;99877.88;5043272;28;46739;-59
2021/04/07 13:07:56;;;;;;;6.50;2.80;;;9.00;50.30;;;6.04;100.00;99870.50;5040096;28;47626;-60
2021/04/07 13:11:07;;;;;;;5.50;2.87;;;9.60;48.60;;;5.54;100.00;99875.84;5042209;28;43859;-61
2021/04/07 13:14:18;;;;;;;3.63;2.47;;;9.80;47.40;;;5.16;100.00;99881.03;5045482;28;40924;-61
2021/04/07 13:17:30;;;;;;;4.97;2.77;;;9.60;47.00;;;5.95;100.00;99880.13;5036978;28;45864;-61
2021/04/07 13:20:41;;;;;;;4.97;3.17;;;9.60;48.00;;;5.77;100.00;99877.28;5043766;28;41245;-61
2021/04/07 13:23:54;;;;;;;6.93;3.10;;;9.80;47.90;;;5.54;100.00;99877.66;5027012;28;51286;-59
2021/04/07 13:27:05;;;;;;;7.17;3.20;;;9.60;47.50;;;5.25;100.00;99881.06;5040720;27;51214;-61
2021/04/07 13:33:47;;;;;;;5.70;2.80;;;9.10;47.30;;;5.12;100.00;99882.25;5028056;28;46467;-58
2021/04/07 13:37:01;;;;;;;5.43;3.10;;;8.80;47.80;;;5.24;100.00;99879.38;5032248;28;50666;-61
2021/04/07 13:40:34;;;;;;;4.57;2.63;;;8.70;49.20;;;5.10;100.00;99879.72;5023255;28;49287;-62